Date,TemperatureHighF,TemperatureAvgF,TemperatureLowF,DewpointHighF,DewpointAvgF,DewpointLowF,HumidityHigh,HumidityAvg,HumidityLow,PressureMaxIn,PressureMinIn,WindSpeedMaxMPH,WindSpeedAvgMPH,GustSpeedMaxMPH,PrecipitationSumIn
2013-12-1,39,26,26,31,2,-100,93,65,65,30.18,30.05,6,-199,10,0.00
2013-12-2,39,26,22,35,4,-100,96,70,74,30.04,29.84,9,-198,15,0.02
2013-12-3,39,27,33,39,-1,-100,98,70,95,29.83,29.74,9,-277,15,0.05
2013-12-4,50,21,41,50,-33,-100,99,46,98,29.81,29.50,8,-533,13,0.01
2013-12-5,23,14,15,18,-20,-100,81,51,64,30.34,29.64,10,-287,18,0.01
2013-12-6,16,9,7,9,-20,-100,81,57,66,30.63,30.32,8,-236,14,0.00
2013-12-7,14,6,2,4,-19,-100,92,60,62,30.79,30.64,7,-196,13,0.00
2013-12-8,24,12,4,23,-19,-100,95,62,74,30.72,30.02,8,-297,15,0.00
2013-12-9,24,10,-3,23,-14,-100,95,66,69,30.25,29.98,9,-199,22,0.00
2013-12-10,18,7,-4,11,-18,-100,87,61,67,30.36,30.03,17,-206,24,0.00
2013-12-11,12,4,-3,9,-21,-100,88,58,62,30.62,30.34,10,-183,16,0.00
2013-12-12,15,7,-4,10,-19,-100,89,59,68,30.61,30.28,10,-212,14,0.00
2013-12-13,23,15,12,19,-10,-100,88,66,80,30.30,30.25,9,-219,14,0.00
2013-12-14,25,18,18,24,-3,-100,94,74,88,30.25,29.99,11,-193,15,0.00
2013-12-15,19,8,1,18,-18,-100,93,58,66,30.22,29.96,13,-205,16,0.00
2013-12-16,17,8,-1,10,-15,-100,88,62,54,30.26,30.11,5,-163,9,0.00
2013-12-17,32,24,20,26,5,-100,93,68,69,30.11,29.97,9,-117,15,0.04
2013-12-18,33,22,12,27,-5,-100,85,56,47,30.17,29.83,10,-193,16,0.04
2013-12-19,32,25,24,30,6,-100,95,74,80,30.04,29.85,14,-161,17,0.00
2013-12-20,30,22,24,29,0,-100,95,75,93,29.94,29.85,10,-204,13,0.00
2013-12-21,31,21,23,30,-5,-100,96,72,93,29.95,29.74,13,-247,19,0.00
2013-12-22,30,16,18,29,-14,-100,96,66,92,30.17,29.72,8,-291,16,0.00
2013-12-23,19,8,0,18,-14,-100,94,71,86,30.48,30.17,8,-199,13,0.00
2013-12-24,14,5,-6,10,-18,-100,90,69,81,30.64,30.42,8,-200,11,0.00
2013-12-25,22,15,11,20,-9,-100,93,70,89,30.41,30.14,5,-223,11,0.00
2013-12-26,25,17,12,23,-4,-100,93,72,81,30.32,30.14,7,-187,13,0.00
2013-12-27,37,25,12,31,5,-100,96,72,79,30.34,30.05,8,-169,15,0.17
2013-12-28,43,31,29,34,5,-100,91,60,69,30.10,29.80,9,-204,15,0.45
2013-12-29,41,14,-1,31,-16,-100,90,57,69,30.29,29.76,11,-249,17,0.45
2013-12-30,2,0,-5,-3,-24,-100,84,59,55,30.42,30.29,6,-176,13,0.00
2013-12-31,6,4,1,3,-17,-100,86,68,73,30.46,30.30,6,-168,12,0.00